sensor_id;sensor_type;location;lat;lon;timestamp;P1;durP1;ratioP1;P2;durP2;ratioP2
17127;SDS011;8679;50.842;4.322;2023-06-14T00:00:38;2.95;;;1.67;;
17127;SDS011;8679;50.842;4.322;2023-06-14T00:03:09;1.73;;;1.30;;
17127;SDS011;8679;50.842;4.322;2023-06-14T00:05:37;2.58;;;1.77;;
17127;SDS011;8679;50.842;4.322;2023-06-14T00:08:10;1.73;;;1.55;;
17127;SDS011;8679;50.842;4.322;2023-06-14T00:10:36;2.33;;;1.55;;
17127;SDS011;8679;50.842;4.322;2023-06-14T00:13:03;4.40;;;2.30;;
17127;SDS011;8679;50.842;4.322;2023-06-14T00:15:32;2.13;;;1.55;;
17127;SDS011;8679;50.842;4.322;2023-06-14T00:17:58;2.45;;;1.63;;
17127;SDS011;8679;50.842;4.322;2023-06-14T00:20:27;1.70;;;1.35;;
17127;SDS011;8679;50.842;4.322;2023-06-14T00:22:54;1.92;;;1.40;;
17127;SDS011;8679;50.842;4.322;2023-06-14T00:25:22;4.10;;;1.80;;
17127;SDS011;8679;50.842;4.322;2023-06-14T00:27:48;2.92;;;1.90;;
17127;SDS011;8679;50.842;4.322;2023-06-14T00:30:14;2.50;;;1.63;;
17127;SDS011;8679;50.842;4.322;2023-06-14T00:32:40;2.38;;;1.50;;
17127;SDS011;8679;50.842;4.322;2023-06-14T00:35:08;2.95;;;2.15;;
17127;SDS011;8679;50.842;4.322;2023-06-14T00:37:34;2.30;;;1.50;;
17127;SDS011;8679;50.842;4.322;2023-06-14T00:40:00;3.30;;;1.90;;
17127;SDS011;8679;50.842;4.322;2023-06-14T00:42:26;2.30;;;1.65;;
17127;SDS011;8679;50.842;4.322;2023-06-14T00:44:52;3.38;;;1.70;;
17127;SDS011;8679;50.842;4.322;2023-06-14T00:47:18;1.77;;;1.65;;
17127;SDS011;8679;50.842;4.322;2023-06-14T00:49:47;2.97;;;2.33;;
17127;SDS011;8679;50.842;4.322;2023-06-14T00:52:16;2.67;;;1.65;;
17127;SDS011;8679;50.842;4.322;2023-06-14T00:54:42;2.50;;;1.73;;
17127;SDS011;8679;50.842;4.322;2023-06-14T00:57:09;2.53;;;1.90;;
17127;SDS011;8679;50.842;4.322;2023-06-14T00:59:47;1.90;;;1.70;;
17127;SDS011;8679;50.842;4.322;2023-06-14T01:02:14;4.32;;;2.33;;
17127;SDS011;8679;50.842;4.322;2023-06-14T01:04:40;4.32;;;1.70;;
17127;SDS011;8679;50.842;4.322;2023-06-14T01:13:10;3.38;;;1.75;;
17127;SDS011;8679;50.842;4.322;2023-06-14T01:15:38;3.35;;;2.10;;
17127;SDS011;8679;50.842;4.322;2023-06-14T01:18:05;2.85;;;1.70;;
17127;SDS011;8679;50.842;4.322;2023-06-14T01:20:32;2.03;;;1.60;;
17127;SDS011;8679;50.842;4.322;2023-06-14T01:23:01;2.75;;;1.65;;
17127;SDS011;8679;50.842;4.322;2023-06-14T01:25:27;2.25;;;1.80;;
17127;SDS011;8679;50.842;4.322;2023-06-14T01:27:55;1.85;;;1.60;;
17127;SDS011;8679;50.842;4.322;2023-06-14T01:30:23;3.03;;;1.70;;
17127;SDS011;8679;50.842;4.322;2023-06-14T01:32:50;2.70;;;2.13;;
17127;SDS011;8679;50.842;4.322;2023-06-14T01:35:17;2.03;;;1.58;;
17127;SDS011;8679;50.842;4.322;2023-06-14T01:37:43;1.60;;;1.48;;
17127;SDS011;8679;50.842;4.322;2023-06-14T01:40:12;2.25;;;1.48;;
17127;SDS011;8679;50.842;4.322;2023-06-14T01:42:38;2.03;;;1.73;;
17127;SDS011;8679;50.842;4.322;2023-06-14T01:45:05;2.40;;;1.52;;
17127;SDS011;8679;50.842;4.322;2023-06-14T01:47:31;2.67;;;2.00;;
17127;SDS011;8679;50.842;4.322;2023-06-14T01:49:59;3.88;;;1.70;;
17127;SDS011;8679;50.842;4.322;2023-06-14T01:52:25;2.20;;;1.48;;
17127;SDS011;8679;50.842;4.322;2023-06-14T01:54:50;2.45;;;1.73;;
17127;SDS011;8679;50.842;4.322;2023-06-14T01:57:16;2.60;;;1.90;;
17127;SDS011;8679;50.842;4.322;2023-06-14T01:59:42;2.30;;;1.77;;
17127;SDS011;8679;50.842;4.322;2023-06-14T02:02:08;1.90;;;1.58;;
17127;SDS011;8679;50.842;4.322;2023-06-14T02:04:33;2.13;;;1.48;;
17127;SDS011;8679;50.842;4.322;2023-06-14T02:06:59;2.75;;;2.03;;
17127;SDS011;8679;50.842;4.322;2023-06-14T02:09:25;2.05;;;1.48;;
17127;SDS011;8679;50.842;4.322;2023-06-14T02:11:52;3.20;;;2.28;;
17127;SDS011;8679;50.842;4.322;2023-06-14T02:14:17;3.60;;;1.90;;
17127;SDS011;8679;50.842;4.322;2023-06-14T02:16:43;2.45;;;1.70;;
17127;SDS011;8679;50.842;4.322;2023-06-14T02:19:14;2.35;;;1.85;;
17127;SDS011;8679;50.842;4.322;2023-06-14T02:21:44;1.90;;;1.65;;
17127;SDS011;8679;50.842;4.322;2023-06-14T02:24:10;1.85;;;1.67;;
17127;SDS011;8679;50.842;4.322;2023-06-14T02:26:36;2.40;;;1.70;;
17127;SDS011;8679;50.842;4.322;2023-06-14T02:29:05;3.75;;;2.00;;
17127;SDS011;8679;50.842;4.322;2023-06-14T02:31:34;3.10;;;1.90;;
17127;SDS011;8679;50.842;4.322;2023-06-14T02:34:00;1.98;;;1.60;;
17127;SDS011;8679;50.842;4.322;2023-06-14T02:36:26;2.28;;;1.73;;
17127;SDS011;8679;50.842;4.322;2023-06-14T02:38:52;2.13;;;1.60;;
17127;SDS011;8679;50.842;4.322;2023-06-14T02:41:19;2.42;;;1.80;;
17127;SDS011;8679;50.842;4.322;2023-06-14T02:43:45;2.28;;;1.80;;
17127;SDS011;8679;50.842;4.322;2023-06-14T02:46:10;2.63;;;1.67;;
17127;SDS011;8679;50.842;4.322;2023-06-14T02:48:36;3.13;;;2.08;;
17127;SDS011;8679;50.842;4.322;2023-06-14T02:51:02;2.83;;;1.98;;
17127;SDS011;8679;50.842;4.322;2023-06-14T02:53:27;3.05;;;2.15;;
17127;SDS011;8679;50.842;4.322;2023-06-14T02:55:53;3.75;;;2.65;;
17127;SDS011;8679;50.842;4.322;2023-06-14T02:58:20;2.53;;;1.77;;
17127;SDS011;8679;50.842;4.322;2023-06-14T03:00:46;2.03;;;1.77;;
17127;SDS011;8679;50.842;4.322;2023-06-14T03:03:12;2.58;;;2.08;;
17127;SDS011;8679;50.842;4.322;2023-06-14T03:05:44;3.13;;;2.10;;
17127;SDS011;8679;50.842;4.322;2023-06-14T03:08:13;2.30;;;1.85;;
17127;SDS011;8679;50.842;4.322;2023-06-14T03:10:47;3.00;;;1.90;;
17127;SDS011;8679;50.842;4.322;2023-06-14T03:13:14;3.08;;;2.30;;
17127;SDS011;8679;50.842;4.322;2023-06-14T03:15:43;3.30;;;2.28;;
17127;SDS011;8679;50.842;4.322;2023-06-14T03:18:09;2.88;;;2.58;;
17127;SDS011;8679;50.842;4.322;2023-06-14T03:20:37;2.42;;;1.88;;
17127;SDS011;8679;50.842;4.322;2023-06-14T03:23:03;3.22;;;1.88;;
17127;SDS011;8679;50.842;4.322;2023-06-14T03:25:30;3.05;;;2.28;;
17127;SDS011;8679;50.842;4.322;2023-06-14T03:27:59;2.70;;;2.03;;
17127;SDS011;8679;50.842;4.322;2023-06-14T03:30:25;3.58;;;2.58;;
17127;SDS011;8679;50.842;4.322;2023-06-14T03:32:50;2.10;;;1.90;;
17127;SDS011;8679;50.842;4.322;2023-06-14T03:35:18;3.90;;;2.47;;
17127;SDS011;8679;50.842;4.322;2023-06-14T03:37:45;2.35;;;1.73;;
17127;SDS011;8679;50.842;4.322;2023-06-14T03:40:11;2.83;;;2.00;;
17127;SDS011;8679;50.842;4.322;2023-06-14T03:42:38;2.72;;;1.80;;
17127;SDS011;8679;50.842;4.322;2023-06-14T03:45:05;2.53;;;1.90;;
17127;SDS011;8679;50.842;4.322;2023-06-14T03:47:31;2.33;;;2.10;;
17127;SDS011;8679;50.842;4.322;2023-06-14T03:49:57;2.97;;;1.80;;
17127;SDS011;8679;50.842;4.322;2023-06-14T03:52:23;3.08;;;2.20;;
17127;SDS011;8679;50.842;4.322;2023-06-14T03:54:50;3.53;;;2.05;;
17127;SDS011;8679;50.842;4.322;2023-06-14T03:57:16;3.15;;;1.77;;
17127;SDS011;8679;50.842;4.322;2023-06-14T03:59:42;2.80;;;1.88;;
17127;SDS011;8679;50.842;4.322;2023-06-14T04:02:08;2.70;;;2.08;;
17127;SDS011;8679;50.842;4.322;2023-06-14T04:04:40;3.20;;;2.22;;
17127;SDS011;8679;50.842;4.322;2023-06-14T04:07:09;3.63;;;2.33;;
17127;SDS011;8679;50.842;4.322;2023-06-14T04:09:36;4.30;;;2.75;;
17127;SDS011;8679;50.842;4.322;2023-06-14T04:12:03;2.53;;;2.20;;
17127;SDS011;8679;50.842;4.322;2023-06-14T04:14:29;5.80;;;2.17;;
17127;SDS011;8679;50.842;4.322;2023-06-14T04:16:55;2.85;;;2.55;;
17127;SDS011;8679;50.842;4.322;2023-06-14T04:19:21;3.63;;;2.97;;
17127;SDS011;8679;50.842;4.322;2023-06-14T04:21:47;4.30;;;2.75;;
17127;SDS011;8679;50.842;4.322;2023-06-14T04:24:13;6.65;;;4.13;;
17127;SDS011;8679;50.842;4.322;2023-06-14T04:26:39;11.52;;;7.25;;
17127;SDS011;8679;50.842;4.322;2023-06-14T04:29:06;13.00;;;8.05;;
17127;SDS011;8679;50.842;4.322;2023-06-14T04:31:32;16.42;;;8.60;;
17127;SDS011;8679;50.842;4.322;2023-06-14T04:33:59;14.00;;;7.18;;
17127;SDS011;8679;50.842;4.322;2023-06-14T04:36:25;6.13;;;4.55;;
17127;SDS011;8679;50.842;4.322;2023-06-14T04:38:53;4.35;;;3.03;;
17127;SDS011;8679;50.842;4.322;2023-06-14T04:41:21;5.20;;;3.33;;
17127;SDS011;8679;50.842;4.322;2023-06-14T04:43:48;3.97;;;2.63;;
17127;SDS011;8679;50.842;4.322;2023-06-14T04:46:14;5.85;;;3.25;;
17127;SDS011;8679;50.842;4.322;2023-06-14T04:48:40;3.65;;;2.10;;
17127;SDS011;8679;50.842;4.322;2023-06-14T04:51:08;2.58;;;2.17;;
17127;SDS011;8679;50.842;4.322;2023-06-14T04:53:34;2.05;;;1.73;;
17127;SDS011;8679;50.842;4.322;2023-06-14T04:55:59;3.40;;;2.20;;
17127;SDS011;8679;50.842;4.322;2023-06-14T04:58:26;2.60;;;1.90;;
17127;SDS011;8679;50.842;4.322;2023-06-14T05:00:53;3.67;;;2.33;;
17127;SDS011;8679;50.842;4.322;2023-06-14T05:03:21;3.28;;;2.33;;
17127;SDS011;8679;50.842;4.322;2023-06-14T05:05:47;2.40;;;1.70;;
17127;SDS011;8679;50.842;4.322;2023-06-14T05:08:13;2.33;;;1.77;;
17127;SDS011;8679;50.842;4.322;2023-06-14T05:10:38;2.20;;;1.52;;
17127;SDS011;8679;50.842;4.322;2023-06-14T05:13:04;2.15;;;1.95;;
17127;SDS011;8679;50.842;4.322;2023-06-14T05:15:30;2.33;;;1.73;;
17127;SDS011;8679;50.842;4.322;2023-06-14T05:17:55;2.83;;;1.75;;
17127;SDS011;8679;50.842;4.322;2023-06-14T05:20:22;3.53;;;1.98;;
17127;SDS011;8679;50.842;4.322;2023-06-14T05:22:49;2.97;;;2.15;;
17127;SDS011;8679;50.842;4.322;2023-06-14T05:25:19;2.42;;;1.85;;
17127;SDS011;8679;50.842;4.322;2023-06-14T05:27:46;3.03;;;1.80;;
17127;SDS011;8679;50.842;4.322;2023-06-14T05:30:12;4.30;;;2.70;;
17127;SDS011;8679;50.842;4.322;2023-06-14T05:32:39;3.97;;;2.55;;
17127;SDS011;8679;50.842;4.322;2023-06-14T05:35:05;2.53;;;1.77;;
17127;SDS011;8679;50.842;4.322;2023-06-14T05:37:31;5.10;;;1.98;;
17127;SDS011;8679;50.842;4.322;2023-06-14T05:39:57;2.63;;;1.52;;
17127;SDS011;8679;50.842;4.322;2023-06-14T05:42:23;3.22;;;2.13;;
17127;SDS011;8679;50.842;4.322;2023-06-14T05:44:48;3.90;;;2.38;;
17127;SDS011;8679;50.842;4.322;2023-06-14T05:47:14;7.80;;;3.20;;
17127;SDS011;8679;50.842;4.322;2023-06-14T05:49:40;2.80;;;2.00;;
17127;SDS011;8679;50.842;4.322;2023-06-14T05:52:06;2.58;;;1.83;;
17127;SDS011;8679;50.842;4.322;2023-06-14T05:54:32;2.65;;;2.00;;
17127;SDS011;8679;50.842;4.322;2023-06-14T05:56:58;2.90;;;2.00;;
17127;SDS011;8679;50.842;4.322;2023-06-14T05:59:27;3.50;;;2.50;;
17127;SDS011;8679;50.842;4.322;2023-06-14T06:01:53;2.05;;;1.85;;
17127;SDS011;8679;50.842;4.322;2023-06-14T06:04:18;4.85;;;2.00;;
17127;SDS011;8679;50.842;4.322;2023-06-14T06:06:45;2.88;;;2.00;;
17127;SDS011;8679;50.842;4.322;2023-06-14T06:09:11;1.80;;;1.67;;
17127;SDS011;8679;50.842;4.322;2023-06-14T06:11:39;2.78;;;2.20;;
17127;SDS011;8679;50.842;4.322;2023-06-14T06:14:05;3.05;;;2.08;;
17127;SDS011;8679;50.842;4.322;2023-06-14T06:16:31;2.72;;;1.92;;
17127;SDS011;8679;50.842;4.322;2023-06-14T06:18:56;5.20;;;1.85;;
17127;SDS011;8679;50.842;4.322;2023-06-14T06:21:22;4.68;;;2.65;;
17127;SDS011;8679;50.842;4.322;2023-06-14T06:23:50;3.50;;;2.10;;
17127;SDS011;8679;50.842;4.322;2023-06-14T06:26:16;3.28;;;2.15;;
17127;SDS011;8679;50.842;4.322;2023-06-14T06:28:42;3.13;;;1.83;;
17127;SDS011;8679;50.842;4.322;2023-06-14T06:31:07;2.08;;;1.85;;
17127;SDS011;8679;50.842;4.322;2023-06-14T06:33:33;2.88;;;1.92;;
17127;SDS011;8679;50.842;4.322;2023-06-14T06:35:59;2.38;;;2.08;;
17127;SDS011;8679;50.842;4.322;2023-06-14T06:38:24;4.47;;;2.83;;
17127;SDS011;8679;50.842;4.322;2023-06-14T06:40:50;3.72;;;2.03;;
17127;SDS011;8679;50.842;4.322;2023-06-14T06:43:19;2.75;;;1.63;;
17127;SDS011;8679;50.842;4.322;2023-06-14T06:45:45;2.67;;;1.73;;
17127;SDS011;8679;50.842;4.322;2023-06-14T06:48:11;5.47;;;3.08;;
17127;SDS011;8679;50.842;4.322;2023-06-14T06:50:36;4.22;;;2.42;;
17127;SDS011;8679;50.842;4.322;2023-06-14T06:53:02;3.03;;;1.80;;
17127;SDS011;8679;50.842;4.322;2023-06-14T06:55:27;2.28;;;1.75;;
17127;SDS011;8679;50.842;4.322;2023-06-14T06:57:53;2.47;;;1.52;;
17127;SDS011;8679;50.842;4.322;2023-06-14T07:00:19;3.40;;;2.22;;
17127;SDS011;8679;50.842;4.322;2023-06-14T07:02:46;3.42;;;1.50;;
17127;SDS011;8679;50.842;4.322;2023-06-14T07:05:12;8.00;;;4.75;;
17127;SDS011;8679;50.842;4.322;2023-06-14T07:07:38;3.85;;;2.58;;
17127;SDS011;8679;50.842;4.322;2023-06-14T07:10:04;2.25;;;2.05;;
17127;SDS011;8679;50.842;4.322;2023-06-14T07:12:30;4.47;;;2.58;;
17127;SDS011;8679;50.842;4.322;2023-06-14T07:14:59;2.63;;;1.85;;
17127;SDS011;8679;50.842;4.322;2023-06-14T07:17:24;2.38;;;1.80;;
17127;SDS011;8679;50.842;4.322;2023-06-14T07:19:50;2.53;;;1.67;;
17127;SDS011;8679;50.842;4.322;2023-06-14T07:22:16;2.60;;;1.85;;
17127;SDS011;8679;50.842;4.322;2023-06-14T07:24:43;1.65;;;1.40;;
17127;SDS011;8679;50.842;4.322;2023-06-14T07:27:09;3.17;;;1.85;;
17127;SDS011;8679;50.842;4.322;2023-06-14T07:29:36;3.50;;;1.95;;
17127;SDS011;8679;50.842;4.322;2023-06-14T07:32:02;4.30;;;1.48;;
17127;SDS011;8679;50.842;4.322;2023-06-14T07:34:28;3.55;;;2.30;;
17127;SDS011;8679;50.842;4.322;2023-06-14T07:36:53;1.60;;;1.50;;
17127;SDS011;8679;50.842;4.322;2023-06-14T07:39:19;3.88;;;1.90;;
17127;SDS011;8679;50.842;4.322;2023-06-14T07:41:45;4.15;;;2.17;;
17127;SDS011;8679;50.842;4.322;2023-06-14T07:44:11;3.53;;;1.98;;
17127;SDS011;8679;50.842;4.322;2023-06-14T07:46:37;2.72;;;1.65;;
17127;SDS011;8679;50.842;4.322;2023-06-14T07:49:03;4.15;;;1.65;;
17127;SDS011;8679;50.842;4.322;2023-06-14T07:51:29;6.85;;;2.50;;
17127;SDS011;8679;50.842;4.322;2023-06-14T07:53:54;3.55;;;2.00;;
17127;SDS011;8679;50.842;4.322;2023-06-14T07:56:21;2.13;;;1.60;;
17127;SDS011;8679;50.842;4.322;2023-06-14T07:58:48;2.53;;;1.45;;
17127;SDS011;8679;50.842;4.322;2023-06-14T08:01:13;2.13;;;1.75;;
17127;SDS011;8679;50.842;4.322;2023-06-14T08:03:40;20.80;;;8.43;;
17127;SDS011;8679;50.842;4.322;2023-06-14T08:06:06;5.05;;;2.15;;
17127;SDS011;8679;50.842;4.322;2023-06-14T08:08:32;2.40;;;1.73;;
17127;SDS011;8679;50.842;4.322;2023-06-14T08:10:58;2.25;;;1.70;;
17127;SDS011;8679;50.842;4.322;2023-06-14T08:13:24;3.03;;;2.00;;
17127;SDS011;8679;50.842;4.322;2023-06-14T08:15:50;1.90;;;1.50;;
17127;SDS011;8679;50.842;4.322;2023-06-14T08:18:16;3.40;;;2.00;;
17127;SDS011;8679;50.842;4.322;2023-06-14T08:20:41;3.53;;;1.77;;
17127;SDS011;8679;50.842;4.322;2023-06-14T08:23:07;3.17;;;1.90;;
17127;SDS011;8679;50.842;4.322;2023-06-14T08:25:34;3.40;;;1.92;;
17127;SDS011;8679;50.842;4.322;2023-06-14T08:28:00;3.70;;;2.28;;
17127;SDS011;8679;50.842;4.322;2023-06-14T08:30:25;3.15;;;1.95;;
17127;SDS011;8679;50.842;4.322;2023-06-14T08:32:51;2.45;;;1.52;;
17127;SDS011;8679;50.842;4.322;2023-06-14T08:35:20;2.58;;;1.88;;
17127;SDS011;8679;50.842;4.322;2023-06-14T08:37:46;2.42;;;1.58;;
17127;SDS011;8679;50.842;4.322;2023-06-14T08:40:19;2.63;;;1.70;;
17127;SDS011;8679;50.842;4.322;2023-06-14T08:42:53;2.55;;;1.85;;
17127;SDS011;8679;50.842;4.322;2023-06-14T08:45:20;2.63;;;1.60;;
17127;SDS011;8679;50.842;4.322;2023-06-14T08:47:47;1.90;;;1.48;;
17127;SDS011;8679;50.842;4.322;2023-06-14T08:50:22;3.03;;;1.90;;
17127;SDS011;8679;50.842;4.322;2023-06-14T08:52:51;2.75;;;1.77;;
17127;SDS011;8679;50.842;4.322;2023-06-14T08:55:19;1.95;;;1.58;;
17127;SDS011;8679;50.842;4.322;2023-06-14T08:57:50;3.90;;;1.63;;
17127;SDS011;8679;50.842;4.322;2023-06-14T09:00:18;3.30;;;1.65;;
17127;SDS011;8679;50.842;4.322;2023-06-14T09:02:45;2.17;;;1.30;;
17127;SDS011;8679;50.842;4.322;2023-06-14T09:05:14;2.55;;;1.70;;
17127;SDS011;8679;50.842;4.322;2023-06-14T09:07:43;1.60;;;1.40;;
17127;SDS011;8679;50.842;4.322;2023-06-14T09:10:13;2.42;;;1.70;;
17127;SDS011;8679;50.842;4.322;2023-06-14T09:12:40;3.28;;;1.63;;
17127;SDS011;8679;50.842;4.322;2023-06-14T09:15:06;4.97;;;2.20;;
17127;SDS011;8679;50.842;4.322;2023-06-14T09:17:36;4.70;;;2.17;;
17127;SDS011;8679;50.842;4.322;2023-06-14T09:20:03;2.15;;;1.88;;
17127;SDS011;8679;50.842;4.322;2023-06-14T09:22:38;2.45;;;1.73;;
17127;SDS011;8679;50.842;4.322;2023-06-14T09:25:04;5.15;;;1.80;;
17127;SDS011;8679;50.842;4.322;2023-06-14T09:27:32;2.65;;;1.90;;
17127;SDS011;8679;50.842;4.322;2023-06-14T09:29:58;2.10;;;1.50;;
17127;SDS011;8679;50.842;4.322;2023-06-14T09:32:24;1.50;;;1.30;;
17127;SDS011;8679;50.842;4.322;2023-06-14T09:34:50;3.42;;;2.03;;
17127;SDS011;8679;50.842;4.322;2023-06-14T09:37:27;1.27;;;1.17;;
17127;SDS011;8679;50.842;4.322;2023-06-14T09:39:56;4.47;;;1.75;;
17127;SDS011;8679;50.842;4.322;2023-06-14T09:42:22;2.15;;;1.35;;
17127;SDS011;8679;50.842;4.322;2023-06-14T09:44:51;1.50;;;1.40;;
17127;SDS011;8679;50.842;4.322;2023-06-14T09:47:17;3.42;;;1.90;;
17127;SDS011;8679;50.842;4.322;2023-06-14T09:49:43;5.78;;;3.03;;
17127;SDS011;8679;50.842;4.322;2023-06-14T09:52:19;1.92;;;1.50;;
17127;SDS011;8679;50.842;4.322;2023-06-14T09:54:46;1.75;;;1.45;;
17127;SDS011;8679;50.842;4.322;2023-06-14T09:57:14;2.22;;;1.85;;
17127;SDS011;8679;50.842;4.322;2023-06-14T09:59:44;3.88;;;1.92;;
17127;SDS011;8679;50.842;4.322;2023-06-14T10:02:25;2.00;;;1.40;;
17127;SDS011;8679;50.842;4.322;2023-06-14T10:04:58;2.65;;;1.60;;
17127;SDS011;8679;50.842;4.322;2023-06-14T10:10:06;1.83;;;1.63;;
17127;SDS011;8679;50.842;4.322;2023-06-14T10:12:33;6.10;;;1.98;;
17127;SDS011;8679;50.842;4.322;2023-06-14T10:14:58;2.10;;;1.35;;
17127;SDS011;8679;50.842;4.322;2023-06-14T10:17:38;2.67;;;1.98;;
17127;SDS011;8679;50.842;4.322;2023-06-14T10:20:26;2.88;;;1.80;;
17127;SDS011;8679;50.842;4.322;2023-06-14T10:23:02;2.25;;;1.42;;
17127;SDS011;8679;50.842;4.322;2023-06-14T10:25:33;2.55;;;1.40;;
17127;SDS011;8679;50.842;4.322;2023-06-14T10:28:03;2.20;;;1.38;;
17127;SDS011;8679;50.842;4.322;2023-06-14T10:31:06;1.35;;;1.25;;
17127;SDS011;8679;50.842;4.322;2023-06-14T10:33:39;2.25;;;1.52;;
17127;SDS011;8679;50.842;4.322;2023-06-14T10:39:04;4.35;;;1.95;;
17127;SDS011;8679;50.842;4.322;2023-06-14T10:41:36;9.32;;;2.08;;
17127;SDS011;8679;50.842;4.322;2023-06-14T10:46:38;2.17;;;1.33;;
17127;SDS011;8679;50.842;4.322;2023-06-14T10:49:05;1.60;;;1.45;;
17127;SDS011;8679;50.842;4.322;2023-06-14T10:51:41;1.77;;;1.25;;
17127;SDS011;8679;50.842;4.322;2023-06-14T10:54:13;2.13;;;1.80;;
17127;SDS011;8679;50.842;4.322;2023-06-14T10:56:46;2.80;;;1.45;;
17127;SDS011;8679;50.842;4.322;2023-06-14T10:59:13;2.15;;;1.40;;
17127;SDS011;8679;50.842;4.322;2023-06-14T11:01:48;2.03;;;1.60;;
17127;SDS011;8679;50.842;4.322;2023-06-14T11:12:45;1.55;;;1.42;;
17127;SDS011;8679;50.842;4.322;2023-06-14T11:15:13;1.98;;;1.45;;
17127;SDS011;8679;50.842;4.322;2023-06-14T11:17:39;2.45;;;1.60;;
17127;SDS011;8679;50.842;4.322;2023-06-14T11:20:11;2.05;;;1.42;;
17127;SDS011;8679;50.842;4.322;2023-06-14T11:22:43;2.15;;;1.58;;
17127;SDS011;8679;50.842;4.322;2023-06-14T11:25:10;1.50;;;1.30;;
17127;SDS011;8679;50.842;4.322;2023-06-14T11:27:41;1.67;;;1.35;;
17127;SDS011;8679;50.842;4.322;2023-06-14T11:30:08;4.22;;;1.50;;
17127;SDS011;8679;50.842;4.322;2023-06-14T11:32:35;2.00;;;1.38;;
17127;SDS011;8679;50.842;4.322;2023-06-14T11:35:02;2.22;;;1.48;;
17127;SDS011;8679;50.842;4.322;2023-06-14T11:37:30;1.70;;;1.10;;
17127;SDS011;8679;50.842;4.322;2023-06-14T11:39:58;1.35;;;1.25;;
17127;SDS011;8679;50.842;4.322;2023-06-14T11:42:26;1.40;;;1.30;;
17127;SDS011;8679;50.842;4.322;2023-06-14T11:44:53;2.55;;;1.58;;
17127;SDS011;8679;50.842;4.322;2023-06-14T11:47:20;3.55;;;1.40;;
17127;SDS011;8679;50.842;4.322;2023-06-14T11:49:46;2.22;;;1.70;;
17127;SDS011;8679;50.842;4.322;2023-06-14T11:52:12;2.42;;;1.55;;
17127;SDS011;8679;50.842;4.322;2023-06-14T11:54:39;1.58;;;1.20;;
17127;SDS011;8679;50.842;4.322;2023-06-14T11:57:09;5.40;;;1.30;;
17127;SDS011;8679;50.842;4.322;2023-06-14T11:59:38;1.45;;;1.33;;
17127;SDS011;8679;50.842;4.322;2023-06-14T12:02:09;2.05;;;1.23;;
17127;SDS011;8679;50.842;4.322;2023-06-14T12:04:40;1.75;;;1.25;;
17127;SDS011;8679;50.842;4.322;2023-06-14T12:07:24;1.60;;;1.20;;
17127;SDS011;8679;50.842;4.322;2023-06-14T12:12:25;3.75;;;1.65;;
17127;SDS011;8679;50.842;4.322;2023-06-14T12:14:52;2.47;;;1.35;;
17127;SDS011;8679;50.842;4.322;2023-06-14T12:17:18;1.85;;;1.30;;
17127;SDS011;8679;50.842;4.322;2023-06-14T12:19:45;2.10;;;1.20;;
17127;SDS011;8679;50.842;4.322;2023-06-14T12:22:14;2.90;;;1.33;;
17127;SDS011;8679;50.842;4.322;2023-06-14T12:24:44;1.42;;;1.13;;
17127;SDS011;8679;50.842;4.322;2023-06-14T12:27:10;3.05;;;1.52;;
17127;SDS011;8679;50.842;4.322;2023-06-14T12:29:44;6.05;;;1.33;;
17127;SDS011;8679;50.842;4.322;2023-06-14T12:32:10;2.03;;;1.33;;
17127;SDS011;8679;50.842;4.322;2023-06-14T12:34:36;3.90;;;1.00;;
17127;SDS011;8679;50.842;4.322;2023-06-14T12:37:02;2.70;;;1.75;;
17127;SDS011;8679;50.842;4.322;2023-06-14T12:39:31;1.40;;;1.08;;
17127;SDS011;8679;50.842;4.322;2023-06-14T12:41:57;2.03;;;1.60;;
17127;SDS011;8679;50.842;4.322;2023-06-14T12:44:24;3.70;;;1.90;;
17127;SDS011;8679;50.842;4.322;2023-06-14T12:46:50;1.55;;;1.05;;
17127;SDS011;8679;50.842;4.322;2023-06-14T12:49:18;1.25;;;1.15;;
17127;SDS011;8679;50.842;4.322;2023-06-14T12:51:45;1.67;;;1.25;;
17127;SDS011;8679;50.842;4.322;2023-06-14T12:54:10;1.92;;;1.42;;
17127;SDS011;8679;50.842;4.322;2023-06-14T12:56:37;2.00;;;1.10;;
17127;SDS011;8679;50.842;4.322;2023-06-14T12:59:02;2.50;;;1.40;;
17127;SDS011;8679;50.842;4.322;2023-06-14T13:01:28;1.23;;;1.00;;
17127;SDS011;8679;50.842;4.322;2023-06-14T13:03:53;1.55;;;0.95;;
17127;SDS011;8679;50.842;4.322;2023-06-14T13:06:22;6.63;;;1.30;;
17127;SDS011;8679;50.842;4.322;2023-06-14T13:08:48;1.02;;;0.85;;
17127;SDS011;8679;50.842;4.322;2023-06-14T13:11:15;1.83;;;1.13;;
17127;SDS011;8679;50.842;4.322;2023-06-14T13:13:41;1.13;;;1.00;;
17127;SDS011;8679;50.842;4.322;2023-06-14T13:16:06;1.05;;;0.93;;
17127;SDS011;8679;50.842;4.322;2023-06-14T13:18:32;1.45;;;1.20;;
17127;SDS011;8679;50.842;4.322;2023-06-14T13:20:57;1.17;;;1.00;;
17127;SDS011;8679;50.842;4.322;2023-06-14T13:23:23;2.90;;;1.25;;
17127;SDS011;8679;50.842;4.322;2023-06-14T13:25:48;1.10;;;0.75;;
17127;SDS011;8679;50.842;4.322;2023-06-14T13:28:17;1.45;;;1.00;;
17127;SDS011;8679;50.842;4.322;2023-06-14T13:30:44;1.65;;;1.10;;
17127;SDS011;8679;50.842;4.322;2023-06-14T13:33:10;3.15;;;1.33;;
17127;SDS011;8679;50.842;4.322;2023-06-14T13:35:35;0.80;;;0.80;;
17127;SDS011;8679;50.842;4.322;2023-06-14T13:38:01;1.10;;;0.82;;
17127;SDS011;8679;50.842;4.322;2023-06-14T13:40:27;1.95;;;1.10;;
17127;SDS011;8679;50.842;4.322;2023-06-14T13:42:52;2.22;;;1.05;;
17127;SDS011;8679;50.842;4.322;2023-06-14T13:45:18;1.83;;;0.95;;
17127;SDS011;8679;50.842;4.322;2023-06-14T13:47:43;0.90;;;0.80;;
17127;SDS011;8679;50.842;4.322;2023-06-14T13:50:13;8.07;;;2.15;;
17127;SDS011;8679;50.842;4.322;2023-06-14T13:52:39;0.52;;;0.52;;
17127;SDS011;8679;50.842;4.322;2023-06-14T13:55:05;5.45;;;1.35;;
17127;SDS011;8679;50.842;4.322;2023-06-14T13:57:31;1.13;;;0.85;;
17127;SDS011;8679;50.842;4.322;2023-06-14T13:59:57;1.10;;;0.93;;
17127;SDS011;8679;50.842;4.322;2023-06-14T14:02:26;1.30;;;1.20;;
17127;SDS011;8679;50.842;4.322;2023-06-14T14:04:53;1.25;;;0.90;;
17127;SDS011;8679;50.842;4.322;2023-06-14T14:07:20;1.48;;;1.08;;
17127;SDS011;8679;50.842;4.322;2023-06-14T14:09:47;0.60;;;0.57;;
17127;SDS011;8679;50.842;4.322;2023-06-14T14:12:13;1.00;;;0.68;;
17127;SDS011;8679;50.842;4.322;2023-06-14T14:14:39;0.88;;;0.88;;
17127;SDS011;8679;50.842;4.322;2023-06-14T14:17:05;1.52;;;0.90;;
17127;SDS011;8679;50.842;4.322;2023-06-14T14:19:31;0.73;;;0.63;;
17127;SDS011;8679;50.842;4.322;2023-06-14T14:21:57;1.77;;;0.70;;
17127;SDS011;8679;50.842;4.322;2023-06-14T14:24:23;1.05;;;0.82;;
17127;SDS011;8679;50.842;4.322;2023-06-14T14:26:48;1.58;;;0.77;;
17127;SDS011;8679;50.842;4.322;2023-06-14T14:29:15;1.67;;;0.77;;
17127;SDS011;8679;50.842;4.322;2023-06-14T14:31:40;1.20;;;0.73;;
17127;SDS011;8679;50.842;4.322;2023-06-14T14:34:06;2.33;;;0.73;;
17127;SDS011;8679;50.842;4.322;2023-06-14T14:36:32;0.70;;;0.50;;
17127;SDS011;8679;50.842;4.322;2023-06-14T14:39:02;1.95;;;0.93;;
17127;SDS011;8679;50.842;4.322;2023-06-14T14:41:29;0.95;;;0.73;;
17127;SDS011;8679;50.842;4.322;2023-06-14T14:43:54;0.43;;;0.38;;
17127;SDS011;8679;50.842;4.322;2023-06-14T14:46:20;0.32;;;0.32;;
17127;SDS011;8679;50.842;4.322;2023-06-14T14:48:45;0.77;;;0.52;;
17127;SDS011;8679;50.842;4.322;2023-06-14T14:51:11;0.60;;;0.47;;
17127;SDS011;8679;50.842;4.322;2023-06-14T14:53:37;1.40;;;0.70;;
17127;SDS011;8679;50.842;4.322;2023-06-14T14:56:02;0.85;;;0.40;;
17127;SDS011;8679;50.842;4.322;2023-06-14T14:58:28;0.32;;;0.30;;
17127;SDS011;8679;50.842;4.322;2023-06-14T15:00:54;0.63;;;0.55;;
17127;SDS011;8679;50.842;4.322;2023-06-14T15:03:20;0.70;;;0.60;;
17127;SDS011;8679;50.842;4.322;2023-06-14T15:05:45;0.88;;;0.70;;
17127;SDS011;8679;50.842;4.322;2023-06-14T15:08:11;2.42;;;1.67;;
17127;SDS011;8679;50.842;4.322;2023-06-14T15:10:40;1.00;;;0.77;;
17127;SDS011;8679;50.842;4.322;2023-06-14T15:13:09;0.50;;;0.40;;
17127;SDS011;8679;50.842;4.322;2023-06-14T15:15:35;1.13;;;0.73;;
17127;SDS011;8679;50.842;4.322;2023-06-14T15:18:01;0.60;;;0.50;;
17127;SDS011;8679;50.842;4.322;2023-06-14T15:20:27;0.40;;;0.30;;
17127;SDS011;8679;50.842;4.322;2023-06-14T15:22:54;0.30;;;0.30;;
17127;SDS011;8679;50.842;4.322;2023-06-14T15:25:28;1.02;;;0.43;;